Time;durP1;ratioP1;P1;durP2;ratioP2;P2;SDS_P1;SDS_P2;PMS_P1;PMS_P2;Temp;Humidity;BMP_temperature;BMP_pressure;BME280_temperature;BME280_humidity;BME280_pressure;Samples;Min_cycle;Max_cycle;Signal;HPM_P1;HPM_P2
2021/11/15 00:01:44;;;;;;;56.47;32.58;;;5.10;99.90;;;;;;5004960;28;20211;-84
2021/11/15 00:04:14;;;;;;;63.90;33.00;;;5.10;99.90;;;;;;5020684;28;20230;-86
2021/11/15 00:06:41;;;;;;;69.07;36.83;;;5.20;99.90;;;;;;5021532;28;20421;-83
2021/11/15 00:09:09;;;;;;;81.68;33.75;;;5.30;99.90;;;;;;5003801;28;20211;-83
2021/11/15 00:11:37;;;;;;;74.97;37.33;;;5.60;99.90;;;;;;5021878;28;20211;-84
2021/11/15 00:14:05;;;;;;;78.85;36.80;;;5.40;99.90;;;;;;5012841;28;20208;-82
2021/11/15 00:16:32;;;;;;;71.85;38.50;;;5.20;99.90;;;;;;5019122;28;20249;-84
2021/11/15 00:19:01;;;;;;;85.55;36.25;;;5.20;99.90;;;;;;5023070;28;20212;-86
2021/11/15 00:21:29;;;;;;;74.03;35.38;;;5.20;99.90;;;;;;5021630;28;20504;-83
2021/11/15 00:23:57;;;;;;;65.28;32.75;;;5.20;99.90;;;;;;5004018;28;20267;-83
2021/11/15 00:26:24;;;;;;;87.45;41.58;;;5.10;99.90;;;;;;5012360;28;20207;-85
2021/11/15 00:28:51;;;;;;;69.93;38.45;;;5.10;99.90;;;;;;5003720;28;20240;-83
2021/11/15 00:31:19;;;;;;;89.35;43.05;;;5.10;99.90;;;;;;5003721;28;20200;-83
2021/11/15 00:33:46;;;;;;;94.57;38.47;;;5.00;99.90;;;;;;5004153;28;20207;-84
2021/11/15 00:36:13;;;;;;;76.00;36.50;;;5.00;99.90;;;;;;5021375;28;20214;-86
2021/11/15 00:38:40;;;;;;;85.43;39.05;;;5.00;99.90;;;;;;5021100;28;20218;-84
2021/11/15 00:41:08;;;;;;;77.63;37.97;;;5.00;99.90;;;;;;5022371;28;20222;-86
2021/11/15 00:43:36;;;;;;;71.68;37.90;;;5.10;99.90;;;;;;5021850;28;20475;-85
2021/11/15 00:46:03;;;;;;;95.60;39.67;;;5.10;99.90;;;;;;5005301;28;20501;-82
2021/11/15 00:48:30;;;;;;;94.07;40.70;;;5.00;99.90;;;;;;5021799;28;20200;-82
2021/11/15 00:50:58;;;;;;;91.55;38.88;;;5.10;99.90;;;;;;5004190;28;20201;-85
2021/11/15 00:53:25;;;;;;;97.65;43.10;;;5.10;99.90;;;;;;5020368;28;20239;-82
2021/11/15 00:55:52;;;;;;;74.90;36.42;;;5.10;99.90;;;;;;5019545;28;20311;-84
2021/11/15 00:58:20;;;;;;;87.18;38.55;;;5.10;99.90;;;;;;5000560;28;20211;-85
2021/11/15 01:00:48;;;;;;;80.55;37.80;;;5.10;99.90;;;;;;5021335;28;20450;-80
2021/11/15 01:03:16;;;;;;;77.72;38.60;;;5.10;99.90;;;;;;5000137;28;20433;-86
2021/11/15 01:05:50;;;;;;;72.85;37.00;;;5.10;99.90;;;;;;5019351;28;20548;-85
2021/11/15 01:08:18;;;;;;;99.50;39.22;;;5.10;99.90;;;;;;5004473;28;20544;-86
2021/11/15 01:10:47;;;;;;;82.18;37.97;;;5.00;99.90;;;;;;5003716;28;20253;-81
2021/11/15 01:13:15;;;;;;;95.50;40.38;;;4.90;99.90;;;;;;5025264;28;20203;-82
2021/11/15 01:15:42;;;;;;;86.95;37.72;;;4.90;99.90;;;;;;5025524;28;20207;-85
2021/11/15 01:18:10;;;;;;;84.72;38.15;;;4.90;99.90;;;;;;5008011;28;20448;-86
2021/11/15 01:20:37;;;;;;;74.00;36.72;;;5.10;99.90;;;;;;5024935;28;20246;-80
2021/11/15 01:23:05;;;;;;;76.45;40.08;;;5.10;99.90;;;;;;5007841;28;20242;-86
2021/11/15 01:25:34;;;;;;;83.80;37.53;;;5.10;99.90;;;;;;4996516;28;20248;-87
2021/11/15 01:28:02;;;;;;;84.50;35.08;;;5.00;99.90;;;;;;5024927;28;20199;-88
2021/11/15 01:30:30;;;;;;;91.20;41.25;;;5.00;99.90;;;;;;5022004;28;20244;-82
2021/11/15 01:32:57;;;;;;;98.60;41.22;;;5.00;99.90;;;;;;5021335;28;20254;-86
2021/11/15 01:35:26;;;;;;;81.68;35.17;;;5.10;99.90;;;;;;5006915;28;20202;-84
2021/11/15 01:37:54;;;;;;;100.15;41.97;;;5.10;99.90;;;;;;5007530;28;20203;-83
2021/11/15 01:40:27;;;;;;;93.78;41.45;;;5.00;99.90;;;;;;5008328;28;20451;-87
2021/11/15 01:42:55;;;;;;;84.05;37.40;;;5.10;99.90;;;;;;5024498;28;20232;-86
2021/11/15 01:45:25;;;;;;;74.93;35.65;;;5.10;99.90;;;;;;5025823;28;20196;-85
2021/11/15 01:47:56;;;;;;;79.25;33.75;;;5.10;99.90;;;;;;5028030;28;20513;-81
2021/11/15 01:50:24;;;;;;;82.72;36.10;;;5.10;99.90;;;;;;5016819;28;20197;-86
2021/11/15 01:52:53;;;;;;;82.93;40.17;;;5.10;99.90;;;;;;5007828;28;20493;-85
2021/11/15 01:55:23;;;;;;;83.95;41.05;;;5.10;99.90;;;;;;5007093;28;20191;-85
2021/11/15 01:57:52;;;;;;;92.15;38.65;;;5.10;99.90;;;;;;5025018;28;20346;-85
2021/11/15 02:00:27;;;;;;;63.53;31.23;;;5.20;99.90;;;;;;5018693;28;20329;-82
2021/11/15 02:02:56;;;;;;;80.50;36.42;;;5.10;99.90;;;;;;5006705;28;20203;-86
2021/11/15 02:05:24;;;;;;;79.93;36.45;;;5.30;99.90;;;;;;5006862;28;20477;-86
2021/11/15 02:07:51;;;;;;;83.43;36.08;;;5.20;99.90;;;;;;5007747;28;20210;-84
2021/11/15 02:10:19;;;;;;;82.68;37.80;;;5.10;99.90;;;;;;5024046;28;20237;-88
2021/11/15 02:12:46;;;;;;;90.50;41.30;;;5.20;99.90;;;;;;5024009;28;20196;-84
2021/11/15 02:15:14;;;;;;;83.63;38.63;;;5.20;99.90;;;;;;4999595;28;20227;-80
2021/11/15 02:17:44;;;;;;;72.63;38.47;;;5.20;99.90;;;;;;5024386;28;20201;-84
2021/11/15 02:20:15;;;;;;;74.57;35.65;;;5.20;99.90;;;;;;5005803;28;20201;-85
2021/11/15 02:22:42;;;;;;;85.55;37.88;;;5.20;99.90;;;;;;5023245;28;20212;-89
2021/11/15 02:25:11;;;;;;;77.30;38.80;;;5.20;99.90;;;;;;5025652;28;20202;-88
2021/11/15 02:27:39;;;;;;;87.03;39.08;;;5.30;99.90;;;;;;5024922;28;20328;-88
2021/11/15 02:30:15;;;;;;;79.68;37.28;;;5.40;99.90;;;;;;5007341;28;20196;-84
2021/11/15 02:32:44;;;;;;;83.22;35.13;;;5.30;99.90;;;;;;5007153;28;20206;-82
2021/11/15 02:35:12;;;;;;;72.43;37.20;;;5.30;99.90;;;;;;5024352;28;20210;-85
2021/11/15 02:37:42;;;;;;;104.80;44.10;;;5.30;99.90;;;;;;5023590;28;20556;-81
2021/11/15 02:40:11;;;;;;;81.72;34.35;;;5.20;99.90;;;;;;5023837;28;20203;-84
2021/11/15 02:42:40;;;;;;;93.47;43.30;;;5.10;99.90;;;;;;5024768;28;20203;-86
2021/11/15 02:45:09;;;;;;;74.70;35.08;;;5.20;99.90;;;;;;5023295;28;20259;-88
2021/11/15 02:47:37;;;;;;;93.60;38.22;;;5.20;99.90;;;;;;5006613;28;20217;-87
2021/11/15 02:50:05;;;;;;;93.82;42.08;;;5.20;99.90;;;;;;5005935;28;20201;-85
2021/11/15 02:52:35;;;;;;;74.32;33.95;;;5.20;99.90;;;;;;5023073;28;20223;-80
2021/11/15 02:55:02;;;;;;;89.47;39.50;;;5.10;99.90;;;;;;5023343;28;20251;-83
2021/11/15 02:57:30;;;;;;;70.10;36.22;;;5.10;99.90;;;;;;5023347;28;20417;-84
2021/11/15 02:59:57;;;;;;;90.97;38.75;;;5.10;99.90;;;;;;5023563;28;20265;-85
2021/11/15 03:02:25;;;;;;;92.78;38.00;;;5.10;99.90;;;;;;5023992;28;20249;-88
2021/11/15 03:04:52;;;;;;;84.38;41.78;;;5.20;99.90;;;;;;5006803;28;20260;-86
2021/11/15 03:07:20;;;;;;;80.85;38.90;;;5.30;99.90;;;;;;5002293;28;20263;-82
2021/11/15 03:09:47;;;;;;;72.00;37.90;;;5.30;99.90;;;;;;5005128;28;20435;-84
2021/11/15 03:12:16;;;;;;;81.25;37.67;;;5.20;99.90;;;;;;5023367;28;20264;-83
2021/11/15 03:14:43;;;;;;;78.15;36.58;;;5.20;99.90;;;;;;5022991;28;20234;-85
2021/11/15 03:17:10;;;;;;;73.43;33.65;;;5.20;99.90;;;;;;5017337;28;20202;-85
2021/11/15 03:19:38;;;;;;;85.90;37.90;;;5.20;99.90;;;;;;5005164;28;20566;-84
2021/11/15 03:22:05;;;;;;;72.68;36.28;;;5.10;99.90;;;;;;5023152;28;20204;-84
2021/11/15 03:24:32;;;;;;;86.15;38.05;;;5.10;99.90;;;;;;5011387;28;20220;-86
2021/11/15 03:27:00;;;;;;;81.65;38.28;;;5.10;99.90;;;;;;5031602;28;20493;-84
2021/11/15 03:29:27;;;;;;;87.35;39.60;;;5.20;99.90;;;;;;5023741;28;20395;-84
2021/11/15 03:31:54;;;;;;;83.78;38.72;;;5.30;99.90;;;;;;5022728;28;20203;-87
2021/11/15 03:34:23;;;;;;;89.78;39.22;;;5.40;99.90;;;;;;5006195;28;20298;-84
2021/11/15 03:36:50;;;;;;;78.47;38.65;;;5.30;99.90;;;;;;5022516;28;20241;-87
2021/11/15 03:39:18;;;;;;;90.13;40.42;;;5.30;99.90;;;;;;5005784;28;20453;-82
2021/11/15 03:41:46;;;;;;;75.55;34.30;;;5.20;99.90;;;;;;5023127;28;20220;-86
2021/11/15 03:44:13;;;;;;;77.65;35.60;;;5.30;99.90;;;;;;5008335;28;20594;-84
2021/11/15 03:46:41;;;;;;;90.72;42.10;;;5.30;99.90;;;;;;5005188;28;20224;-84
2021/11/15 03:49:14;;;;;;;71.20;37.65;;;5.10;99.90;;;;;;5008428;28;20590;-84
2021/11/15 03:51:44;;;;;;;88.35;35.58;;;5.20;99.90;;;;;;5004940;28;20303;-85
2021/11/15 03:54:12;;;;;;;92.70;39.53;;;5.30;99.90;;;;;;5021484;28;20207;-85
2021/11/15 03:56:40;;;;;;;82.90;40.25;;;5.20;99.90;;;;;;5004410;28;20485;-82
2021/11/15 03:59:11;;;;;;;65.60;36.10;;;5.10;99.90;;;;;;5021861;28;20201;-81
2021/11/15 04:01:39;;;;;;;81.93;38.13;;;5.10;99.90;;;;;;5001153;28;20304;-86
2021/11/15 04:04:09;;;;;;;82.50;38.50;;;5.10;99.90;;;;;;5004312;28;20252;-85
2021/11/15 04:06:39;;;;;;;79.28;35.10;;;5.10;99.90;;;;;;5022013;28;20519;-88
2021/11/15 04:09:09;;;;;;;82.45;38.47;;;5.10;99.90;;;;;;5005029;28;20201;-86
2021/11/15 04:11:38;;;;;;;73.03;35.80;;;5.10;99.90;;;;;;5003980;28;20564;-84
2021/11/15 04:14:08;;;;;;;71.72;33.58;;;5.20;99.90;;;;;;5021724;28;20395;-85
2021/11/15 04:16:35;;;;;;;68.65;35.08;;;5.30;99.90;;;;;;5021408;28;20228;-83
2021/11/15 04:19:13;;;;;;;75.95;33.40;;;5.30;99.90;;;;;;5021797;28;20282;-83
2021/11/15 04:21:42;;;;;;;59.40;34.30;;;5.30;99.90;;;;;;5021344;28;20223;-84
2021/11/15 04:24:09;;;;;;;74.65;36.90;;;5.20;99.90;;;;;;5004492;28;20335;-86
2021/11/15 04:26:37;;;;;;;59.92;32.78;;;5.30;99.90;;;;;;5021735;28;20371;-82
2021/11/15 04:29:04;;;;;;;73.68;38.85;;;5.20;99.90;;;;;;5011213;28;20197;-84
2021/11/15 04:31:31;;;;;;;66.82;34.30;;;5.20;99.90;;;;;;5003383;28;20243;-85
2021/11/15 04:33:59;;;;;;;71.07;33.95;;;5.10;99.90;;;;;;5019297;28;20212;-83
2021/11/15 04:36:26;;;;;;;75.43;34.72;;;5.20;99.90;;;;;;5019047;28;20211;-84
2021/11/15 04:38:54;;;;;;;71.45;33.03;;;5.20;99.90;;;;;;4996915;28;20216;-84
2021/11/15 04:41:21;;;;;;;59.55;29.45;;;5.20;99.90;;;;;;5020327;28;20262;-85
2021/11/15 04:43:48;;;;;;;63.08;31.05;;;5.20;99.90;;;;;;5003138;28;20596;-89
2021/11/15 04:46:16;;;;;;;71.47;37.95;;;5.10;99.90;;;;;;5020738;28;20207;-88
2021/11/15 04:48:43;;;;;;;70.07;32.88;;;5.00;99.90;;;;;;5020901;28;20199;-85
2021/11/15 04:51:11;;;;;;;70.82;34.92;;;5.10;99.90;;;;;;5021585;28;20551;-85
2021/11/15 04:53:38;;;;;;;62.88;31.27;;;5.10;99.90;;;;;;5022023;28;20422;-87
2021/11/15 04:56:07;;;;;;;64.68;32.63;;;5.10;99.90;;;;;;5006058;28;20262;-89
2021/11/15 04:58:35;;;;;;;75.25;34.35;;;5.20;99.90;;;;;;5004863;28;20207;-87
2021/11/15 05:01:02;;;;;;;81.55;36.03;;;5.20;99.90;;;;;;5011731;28;20256;-84
2021/11/15 05:03:29;;;;;;;62.72;32.65;;;5.30;99.90;;;;;;5021426;28;20205;-82
2021/11/15 05:05:57;;;;;;;79.75;33.85;;;5.20;99.90;;;;;;5021737;28;20204;-83
2021/11/15 05:08:24;;;;;;;69.97;34.78;;;5.20;99.90;;;;;;5021215;28;20247;-88
2021/11/15 05:10:52;;;;;;;70.05;36.13;;;5.20;99.90;;;;;;5021595;28;20274;-84
2021/11/15 05:13:19;;;;;;;69.65;35.00;;;5.10;99.90;;;;;;5021551;28;20277;-85
2021/11/15 05:15:47;;;;;;;69.20;34.10;;;5.30;99.90;;;;;;5004149;28;20267;-85
2021/11/15 05:18:15;;;;;;;58.65;29.80;;;5.20;99.90;;;;;;5021129;28;20211;-85
2021/11/15 05:20:43;;;;;;;70.30;34.22;;;5.30;99.90;;;;;;5022189;28;20546;-86
2021/11/15 05:23:10;;;;;;;59.55;30.80;;;5.30;99.90;;;;;;5021138;28;20203;-85
2021/11/15 05:25:37;;;;;;;60.15;32.25;;;5.40;99.90;;;;;;5004294;28;20427;-85
2021/11/15 05:28:04;;;;;;;70.75;33.22;;;5.30;99.90;;;;;;5021727;28;20208;-82
2021/11/15 05:30:31;;;;;;;60.10;32.65;;;5.10;99.90;;;;;;5019065;28;20510;-87
2021/11/15 05:32:58;;;;;;;57.72;29.23;;;5.10;99.90;;;;;;5014296;28;20408;-81
2021/11/15 05:35:26;;;;;;;54.35;29.27;;;5.20;99.90;;;;;;5018429;28;20497;-84
2021/11/15 05:37:55;;;;;;;64.85;32.05;;;5.20;99.90;;;;;;4991359;28;20266;-87
2021/11/15 05:40:25;;;;;;;69.95;31.42;;;5.20;99.90;;;;;;5018606;28;20279;-84
2021/11/15 05:42:55;;;;;;;69.40;33.97;;;5.10;99.90;;;;;;5017807;28;20533;-86
2021/11/15 05:45:25;;;;;;;67.28;32.22;;;5.20;99.90;;;;;;5015934;28;20232;-86
2021/11/15 05:47:54;;;;;;;49.40;30.05;;;5.10;99.90;;;;;;5009127;28;20211;-84
2021/11/15 05:50:24;;;;;;;61.10;30.85;;;5.10;99.90;;;;;;5012552;28;20232;-86
2021/11/15 05:52:52;;;;;;;65.45;31.50;;;5.20;99.90;;;;;;5018918;28;20296;-86
2021/11/15 05:55:22;;;;;;;57.08;30.85;;;5.20;99.90;;;;;;4998434;28;20204;-82
2021/11/15 05:57:50;;;;;;;61.33;31.17;;;5.20;99.90;;;;;;5006070;28;20577;-89
2021/11/15 06:00:23;;;;;;;58.90;29.25;;;5.20;99.90;;;;;;5007586;28;20209;-87
2021/11/15 06:02:51;;;;;;;53.67;30.92;;;5.20;99.90;;;;;;5025421;28;20201;-86
2021/11/15 06:05:18;;;;;;;76.90;33.92;;;5.20;99.90;;;;;;5023136;28;20220;-86
2021/11/15 06:07:46;;;;;;;66.55;35.75;;;5.30;99.90;;;;;;5024357;28;20250;-86
2021/11/15 06:10:13;;;;;;;59.10;32.80;;;5.30;99.90;;;;;;5019743;28;20478;-85
2021/11/15 06:12:41;;;;;;;56.83;32.78;;;5.40;99.90;;;;;;5024386;28;20433;-86
2021/11/15 06:15:11;;;;;;;59.92;30.05;;;5.20;99.90;;;;;;5025011;28;20269;-87
2021/11/15 06:17:41;;;;;;;53.70;32.35;;;5.20;99.90;;;;;;5023982;28;20214;-86
2021/11/15 06:20:10;;;;;;;73.50;34.70;;;5.10;99.90;;;;;;5009969;28;20193;-84
2021/11/15 06:22:38;;;;;;;70.95;31.27;;;5.10;99.90;;;;;;5007571;28;20210;-82
2021/11/15 06:25:08;;;;;;;64.18;30.85;;;5.20;99.90;;;;;;5021681;28;20219;-86
2021/11/15 06:27:37;;;;;;;54.97;27.85;;;5.10;99.90;;;;;;5007133;28;20232;-87
2021/11/15 06:30:07;;;;;;;61.10;27.85;;;5.20;99.90;;;;;;5007096;28;20204;-87
2021/11/15 06:32:35;;;;;;;67.72;33.90;;;5.30;99.90;;;;;;5024301;28;20208;-85
2021/11/15 06:35:02;;;;;;;65.10;31.10;;;5.40;99.90;;;;;;5024183;28;20203;-84
2021/11/15 06:37:30;;;;;;;58.20;28.42;;;5.30;99.90;;;;;;5006508;28;20207;-85
2021/11/15 06:39:57;;;;;;;57.33;26.15;;;5.20;99.90;;;;;;5026026;28;20218;-84
2021/11/15 06:42:24;;;;;;;49.95;27.73;;;5.30;99.90;;;;;;5026671;28;20232;-81
2021/11/15 06:44:52;;;;;;;48.13;28.48;;;5.30;99.90;;;;;;4993704;28;20247;-87
2021/11/15 06:47:21;;;;;;;50.88;27.73;;;5.40;99.90;;;;;;5004450;28;20209;-87
2021/11/15 06:49:53;;;;;;;64.15;28.33;;;5.40;99.90;;;;;;5002553;28;20197;-84
2021/11/15 06:52:22;;;;;;;54.67;29.92;;;5.30;99.90;;;;;;5012410;28;20211;-80
2021/11/15 06:54:49;;;;;;;55.75;29.95;;;5.30;99.90;;;;;;5000055;28;20208;-87
2021/11/15 06:57:16;;;;;;;70.32;32.28;;;5.30;99.90;;;;;;5006005;28;20193;-87
2021/11/15 06:59:44;;;;;;;65.00;33.53;;;5.40;99.90;;;;;;5024431;28;20490;-85
2021/11/15 07:02:12;;;;;;;53.70;29.15;;;5.30;99.90;;;;;;5022715;28;20218;-83
2021/11/15 07:04:40;;;;;;;48.03;28.58;;;5.30;99.90;;;;;;5022398;28;20237;-85
2021/11/15 07:07:07;;;;;;;59.70;30.00;;;5.30;99.90;;;;;;5023718;28;20208;-83
2021/11/15 07:09:34;;;;;;;51.25;27.13;;;5.30;99.90;;;;;;5024504;28;20205;-87
2021/11/15 07:12:02;;;;;;;63.95;28.80;;;5.30;99.90;;;;;;5024276;28;20512;-86
2021/11/15 07:14:29;;;;;;;64.90;30.00;;;5.40;99.90;;;;;;5006165;28;20520;-81
2021/11/15 07:16:56;;;;;;;63.35;29.45;;;5.40;99.90;;;;;;5015459;28;20208;-89
2021/11/15 07:19:24;;;;;;;59.95;29.63;;;5.30;99.90;;;;;;5004783;28;20508;-89
2021/11/15 07:21:51;;;;;;;51.83;29.58;;;5.30;99.90;;;;;;5022409;28;20203;-87
2021/11/15 07:24:19;;;;;;;46.95;28.90;;;5.40;99.90;;;;;;5005742;28;20200;-87
2021/11/15 07:26:46;;;;;;;58.83;28.17;;;5.40;99.90;;;;;;5023325;28;20294;-86
2021/11/15 07:29:14;;;;;;;56.78;27.77;;;5.40;99.90;;;;;;5023371;28;20193;-83
2021/11/15 07:31:43;;;;;;;57.30;28.08;;;5.50;99.90;;;;;;5022429;28;20246;-81
2021/11/15 07:34:10;;;;;;;48.35;25.77;;;5.50;99.90;;;;;;5023199;28;20565;-88
2021/11/15 07:36:38;;;;;;;62.47;27.65;;;5.50;99.90;;;;;;5006289;28;20288;-82
2021/11/15 07:39:06;;;;;;;62.47;30.40;;;5.40;99.90;;;;;;5022981;28;20660;-88
2021/11/15 07:41:33;;;;;;;48.78;26.58;;;5.40;99.90;;;;;;5006201;28;20211;-86
2021/11/15 07:44:00;;;;;;;58.72;33.13;;;5.50;99.90;;;;;;5023469;28;20203;-86
2021/11/15 07:46:27;;;;;;;39.60;24.08;;;5.60;99.90;;;;;;5023734;28;20232;-86
2021/11/15 07:48:56;;;;;;;53.65;29.65;;;5.50;99.90;;;;;;5003457;28;20279;-82
2021/11/15 07:51:23;;;;;;;46.80;28.15;;;5.50;99.90;;;;;;5023480;28;20201;-86
2021/11/15 07:53:54;;;;;;;51.95;27.25;;;5.50;99.90;;;;;;5020458;28;20197;-84
2021/11/15 07:56:21;;;;;;;48.55;25.48;;;5.50;99.90;;;;;;5023323;28;20237;-84
2021/11/15 07:58:49;;;;;;;58.42;28.98;;;5.60;99.90;;;;;;5022505;28;20208;-84
2021/11/15 08:01:16;;;;;;;48.97;27.58;;;5.60;99.90;;;;;;5021552;28;20208;-86
2021/11/15 08:03:43;;;;;;;56.00;26.80;;;5.60;99.90;;;;;;5019500;28;20208;-84
2021/11/15 08:06:15;;;;;;;43.78;26.60;;;5.70;99.90;;;;;;5022315;28;20224;-84
2021/11/15 08:08:42;;;;;;;50.15;27.50;;;5.70;99.90;;;;;;5022098;28;20204;-86
2021/11/15 08:11:11;;;;;;;57.97;27.80;;;5.60;99.90;;;;;;5022661;28;20205;-86
2021/11/15 08:13:38;;;;;;;47.00;27.17;;;5.70;99.90;;;;;;5017125;28;20215;-86
2021/11/15 08:16:05;;;;;;;49.92;25.40;;;5.70;99.90;;;;;;5004734;28;20254;-87
2021/11/15 08:18:36;;;;;;;49.80;26.13;;;5.70;99.90;;;;;;5004213;28;20223;-85
2021/11/15 08:21:11;;;;;;;47.58;27.67;;;5.70;99.90;;;;;;5022723;28;20510;-85
2021/11/15 08:23:42;;;;;;;41.55;25.00;;;5.60;99.90;;;;;;5023185;28;20215;-86
2021/11/15 08:26:51;;;;;;;49.33;26.67;;;5.70;99.90;;;;;;5024110;28;20232;-85
2021/11/15 08:29:20;;;;;;;50.55;27.02;;;5.60;99.90;;;;;;5023552;28;20197;-85
2021/11/15 08:31:47;;;;;;;51.40;28.58;;;5.70;99.90;;;;;;5023312;28;20199;-87
2021/11/15 08:34:16;;;;;;;46.20;25.98;;;5.80;99.90;;;;;;5023119;28;20488;-85
2021/11/15 08:36:45;;;;;;;42.92;27.73;;;5.90;99.90;;;;;;5022440;28;20211;-83
2021/11/15 08:39:20;;;;;;;43.13;25.90;;;5.90;99.90;;;;;;5005746;28;20217;-84
2021/11/15 08:42:00;;;;;;;58.80;27.20;;;6.00;99.90;;;;;;5006164;28;20211;-86
2021/11/15 08:44:29;;;;;;;50.17;28.40;;;6.10;99.90;;;;;;5016631;28;20355;-86
2021/11/15 08:46:58;;;;;;;42.50;26.70;;;6.10;99.90;;;;;;5024288;28;20204;-86
2021/11/15 08:49:29;;;;;;;44.15;25.50;;;6.10;99.90;;;;;;5024394;28;20490;-87
2021/11/15 08:51:57;;;;;;;45.78;27.33;;;6.10;99.90;;;;;;5006164;28;20212;-86
2021/11/15 08:54:25;;;;;;;53.08;25.25;;;6.20;99.90;;;;;;5023235;28;20494;-85
2021/11/15 08:57:00;;;;;;;43.70;24.98;;;6.10;99.90;;;;;;5023465;28;20236;-85
2021/11/15 08:59:46;;;;;;;48.22;26.05;;;6.10;99.90;;;;;;5007861;28;20196;-87
2021/11/15 09:02:15;;;;;;;49.00;26.20;;;6.20;99.90;;;;;;5024008;28;20216;-80
2021/11/15 09:04:42;;;;;;;44.83;26.48;;;6.30;99.90;;;;;;4999597;28;20208;-90
2021/11/15 09:07:10;;;;;;;52.80;28.30;;;6.20;99.90;;;;;;5005512;28;20212;-90
2021/11/15 09:09:38;;;;;;;52.58;26.50;;;6.20;99.90;;;;;;5007106;28;20385;-88
2021/11/15 09:12:08;;;;;;;39.60;28.02;;;6.30;99.90;;;;;;4996918;28;20280;-87
2021/11/15 09:14:37;;;;;;;46.88;25.77;;;6.40;99.90;;;;;;5022919;28;20494;-87
2021/11/15 09:17:05;;;;;;;48.33;29.00;;;6.30;99.90;;;;;;5017861;28;20201;-91
2021/11/15 09:19:33;;;;;;;48.88;25.70;;;6.40;99.90;;;;;;5006335;28;20232;-89
2021/11/15 09:22:01;;;;;;;49.33;26.95;;;6.40;99.90;;;;;;5023782;28;20212;-91
2021/11/15 09:24:28;;;;;;;45.38;27.35;;;6.40;99.90;;;;;;5006709;28;20495;-84
2021/11/15 09:26:55;;;;;;;45.40;26.67;;;6.40;99.90;;;;;;5023459;28;20229;-86
2021/11/15 09:29:23;;;;;;;40.45;24.40;;;6.50;99.90;;;;;;5016456;28;20204;-88
2021/11/15 09:31:50;;;;;;;39.75;25.60;;;6.70;99.90;;;;;;5010424;28;20209;-88
2021/11/15 09:34:18;;;;;;;43.67;25.38;;;6.90;99.90;;;;;;5026876;28;20200;-88
2021/11/15 09:36:46;;;;;;;44.75;27.75;;;6.80;99.90;;;;;;5010410;28;20215;-83
2021/11/15 09:39:14;;;;;;;45.10;25.85;;;6.60;99.90;;;;;;5009457;28;20226;-86
2021/11/15 09:41:44;;;;;;;41.78;25.33;;;6.50;99.90;;;;;;5009770;28;20285;-83
2021/11/15 09:44:13;;;;;;;40.88;25.73;;;6.40;99.90;;;;;;5014370;28;20217;-81
2021/11/15 09:46:42;;;;;;;45.47;28.15;;;6.40;99.90;;;;;;5027312;28;20217;-84
2021/11/15 09:49:11;;;;;;;43.35;24.73;;;6.40;99.90;;;;;;5026397;28;20456;-86
2021/11/15 09:51:43;;;;;;;42.88;23.60;;;6.50;99.90;;;;;;5009613;28;20230;-91
2021/11/15 09:54:12;;;;;;;48.08;25.73;;;6.60;99.90;;;;;;5008939;28;20486;-91
2021/11/15 09:56:39;;;;;;;47.45;27.40;;;6.60;99.90;;;;;;5008533;28;20521;-87
2021/11/15 09:59:10;;;;;;;45.70;25.90;;;6.60;99.90;;;;;;5026477;28;20211;-83
2021/11/15 10:01:40;;;;;;;53.70;26.30;;;6.50;99.90;;;;;;5008571;28;20279;-81
2021/11/15 10:04:08;;;;;;;47.42;26.02;;;6.50;99.90;;;;;;5009003;28;20219;-82
2021/11/15 10:06:36;;;;;;;41.47;26.15;;;6.40;99.90;;;;;;5025795;28;20251;-84
2021/11/15 10:09:04;;;;;;;45.95;26.85;;;6.40;99.90;;;;;;5009808;28;20509;-87
2021/11/15 10:11:59;;;;;;;41.45;26.50;;;6.50;99.90;;;;;;5010505;28;20243;-90
2021/11/15 10:14:27;;;;;;;51.22;25.70;;;6.60;99.90;;;;;;4974961;28;20201;-90
2021/11/15 10:17:01;;;;;;;46.17;25.50;;;6.50;99.90;;;;;;5026509;28;20204;-88
2021/11/15 10:19:32;;;;;;;46.55;25.95;;;6.60;99.90;;;;;;5025124;28;20237;-81
2021/11/15 10:22:03;;;;;;;47.72;25.55;;;6.60;99.90;;;;;;5025072;28;20208;-82
2021/11/15 10:24:35;;;;;;;48.63;26.38;;;6.60;99.90;;;;;;5008957;28;20266;-89
2021/11/15 10:27:13;;;;;;;45.30;24.88;;;6.50;99.90;;;;;;5008392;28;20230;-88
2021/11/15 10:29:46;;;;;;;48.63;26.35;;;6.60;99.90;;;;;;5025637;28;20427;-81
2021/11/15 10:32:18;;;;;;;39.85;26.40;;;6.60;99.90;;;;;;5026478;28;20209;-86
2021/11/15 10:34:51;;;;;;;49.40;25.23;;;6.70;99.90;;;;;;5026609;28;20193;-86
2021/11/15 10:37:22;;;;;;;57.50;28.27;;;6.80;99.90;;;;;;5025821;28;20421;-83
2021/11/15 10:40:00;;;;;;;43.00;25.75;;;6.80;99.90;;;;;;5026637;28;20279;-81
2021/11/15 10:42:39;;;;;;;49.17;27.70;;;6.70;99.90;;;;;;5007901;28;20203;-87
2021/11/15 10:45:13;;;;;;;46.95;26.83;;;6.60;99.90;;;;;;5025833;28;20204;-88
2021/11/15 10:47:57;;;;;;;48.42;28.15;;;6.80;99.90;;;;;;5026372;28;20367;-84
2021/11/15 10:50:54;;;;;;;42.80;25.08;;;6.80;99.90;;;;;;5013385;28;20441;-85
2021/11/15 10:53:57;;;;;;;48.15;24.58;;;6.80;99.90;;;;;;5002629;28;20196;-85
2021/11/15 10:56:36;;;;;;;48.20;24.02;;;6.80;99.90;;;;;;5024338;28;20204;-88
2021/11/15 10:59:13;;;;;;;42.15;24.23;;;6.70;99.90;;;;;;5025227;28;20541;-86
2021/11/15 11:01:40;;;;;;;47.80;24.77;;;6.70;99.90;;;;;;5023863;28;20212;-81
2021/11/15 11:04:10;;;;;;;58.38;27.23;;;6.60;99.90;;;;;;5023718;28;20213;-84
2021/11/15 11:07:09;;;;;;;50.13;27.58;;;6.60;99.90;;;;;;5018646;28;20553;-82
2021/11/15 11:09:40;;;;;;;48.15;24.83;;;6.50;99.90;;;;;;5017532;28;20276;-82
2021/11/15 11:12:21;;;;;;;50.22;29.73;;;6.60;99.90;;;;;;5023654;28;20197;-83
2021/11/15 11:14:51;;;;;;;45.20;27.33;;;6.60;99.90;;;;;;5023968;28;20473;-83
2021/11/15 11:17:18;;;;;;;49.63;27.17;;;6.60;99.90;;;;;;5005346;28;20247;-79
2021/11/15 11:20:11;;;;;;;47.13;26.50;;;6.60;99.90;;;;;;5015264;28;20393;-81
2021/11/15 11:23:02;;;;;;;52.72;27.17;;;6.60;99.90;;;;;;5004954;28;20267;-81
2021/11/15 11:25:28;;;;;;;66.72;31.08;;;6.60;99.90;;;;;;5023077;28;20408;-81
2021/11/15 11:27:56;;;;;;;60.63;30.60;;;6.60;99.90;;;;;;5022862;28;20208;-79
2021/11/15 11:30:24;;;;;;;51.28;27.27;;;6.50;99.90;;;;;;5016232;28;20200;-81
2021/11/15 11:32:52;;;;;;;56.22;26.98;;;6.50;99.90;;;;;;5023631;28;20203;-84
2021/11/15 11:35:20;;;;;;;50.40;26.27;;;6.60;99.90;;;;;;5022149;28;20247;-78
2021/11/15 11:37:48;;;;;;;44.03;24.55;;;6.60;99.90;;;;;;5005874;28;20456;-81
2021/11/15 11:40:16;;;;;;;50.75;26.23;;;6.70;99.90;;;;;;5023023;28;20246;-81
2021/11/15 11:42:43;;;;;;;47.45;27.25;;;6.80;99.90;;;;;;5022842;28;20402;-82
2021/11/15 11:45:12;;;;;;;45.00;23.52;;;6.90;99.90;;;;;;5021285;28;20200;-79
2021/11/15 11:47:40;;;;;;;46.90;26.50;;;6.90;99.90;;;;;;5017198;28;20224;-79
2021/11/15 11:50:11;;;;;;;43.08;27.00;;;6.90;99.90;;;;;;5022732;28;20201;-81
2021/11/15 11:52:40;;;;;;;45.85;24.42;;;6.80;99.90;;;;;;5017508;28;20205;-82
2021/11/15 11:55:21;;;;;;;44.75;24.02;;;6.80;99.90;;;;;;5003204;28;20267;-82
2021/11/15 11:57:49;;;;;;;55.38;28.10;;;7.00;99.90;;;;;;5005982;28;20263;-81
2021/11/15 12:00:17;;;;;;;51.90;23.33;;;7.00;99.90;;;;;;5023100;28;20196;-80
2021/11/15 12:02:46;;;;;;;41.55;26.65;;;7.00;99.90;;;;;;5016263;28;20243;-82
2021/11/15 12:05:27;;;;;;;48.17;24.90;;;7.00;99.90;;;;;;5022520;28;20264;-79
2021/11/15 12:07:57;;;;;;;54.40;25.20;;;7.00;99.90;;;;;;5000318;28;20201;-81
2021/11/15 12:10:47;;;;;;;44.75;24.33;;;7.00;99.90;;;;;;5021426;28;20241;-80
2021/11/15 12:13:17;;;;;;;45.88;26.77;;;6.90;99.90;;;;;;4991731;28;20261;-83
2021/11/15 12:15:51;;;;;;;46.03;25.42;;;6.90;99.90;;;;;;5002879;28;20217;-82
2021/11/15 12:18:32;;;;;;;44.15;24.30;;;6.90;99.90;;;;;;5005344;28;20202;-81
2021/11/15 12:21:09;;;;;;;54.03;27.08;;;7.10;99.90;;;;;;5021715;28;20212;-83
2021/11/15 12:23:41;;;;;;;42.05;27.15;;;7.20;99.90;;;;;;5014226;28;20394;-82
2021/11/15 12:26:08;;;;;;;41.55;22.77;;;7.20;99.90;;;;;;5003717;28;20409;-82
2021/11/15 12:28:37;;;;;;;47.13;26.33;;;7.30;99.90;;;;;;5020979;28;20201;-83
2021/11/15 12:31:09;;;;;;;39.55;25.45;;;7.30;99.90;;;;;;5020790;28;20204;-81
2021/11/15 12:33:39;;;;;;;45.58;23.88;;;7.10;99.90;;;;;;4998256;28;20429;-81
2021/11/15 12:36:12;;;;;;;44.92;25.95;;;7.00;99.90;;;;;;5003539;28;20215;-83
2021/11/15 12:38:41;;;;;;;55.42;26.55;;;6.90;99.90;;;;;;5021827;28;20199;-80
2021/11/15 12:41:21;;;;;;;59.20;27.00;;;6.90;99.90;;;;;;5011793;28;20228;-79
2021/11/15 12:43:49;;;;;;;51.85;24.98;;;6.90;99.90;;;;;;5000497;28;20518;-83
2021/11/15 12:46:18;;;;;;;53.65;26.02;;;6.90;99.90;;;;;;5004645;28;20228;-82
2021/11/15 12:48:51;;;;;;;44.25;25.77;;;6.90;99.90;;;;;;5021973;28;20536;-83